createdAt,value
2023-03-29T00:02:04.628Z,57.59
2023-03-29T00:04:53.527Z,58.06
2023-03-29T00:07:39.572Z,59.93
2023-03-29T00:10:26.539Z,60.45
2023-03-29T00:13:13.012Z,60.71
2023-03-29T00:15:59.508Z,61.54
2023-03-29T00:18:45.954Z,61.35
2023-03-29T00:21:32.517Z,61.86
2023-03-29T00:24:18.952Z,66.72
2023-03-29T00:27:05.591Z,79.86
2023-03-29T00:29:52.159Z,68.14
2023-03-29T00:32:39.325Z,52.47
2023-03-29T00:35:25.686Z,48.80
2023-03-29T00:38:13.150Z,50.49
2023-03-29T00:40:59.948Z,52.47
2023-03-29T00:44:01.724Z,54.86
2023-03-29T00:46:48.562Z,57.64
2023-03-29T00:49:35.992Z,59.55
2023-03-29T00:52:22.805Z,60.22
2023-03-29T00:55:19.198Z,59.61
2023-03-29T00:58:10.067Z,59.99
2023-03-29T01:01:02.176Z,61.23
2023-03-29T01:03:55.240Z,72.79
2023-03-29T01:06:43.806Z,75.64
2023-03-29T01:09:35.222Z,61.32
2023-03-29T01:12:32.800Z,49.46
2023-03-29T01:15:27.196Z,50.00
2023-03-29T01:18:14.378Z,54.23
2023-03-29T01:21:27.890Z,55.24
2023-03-29T01:24:32.963Z,55.50
2023-03-29T01:27:44.189Z,58.81
2023-03-29T01:30:41.057Z,58.88
2023-03-29T01:33:33.524Z,60.02
2023-03-29T01:36:31.349Z,59.20
2023-03-29T01:39:19.025Z,59.13
2023-03-29T01:42:29.950Z,59.67
2023-03-29T01:46:01.934Z,60.85
2023-03-29T01:48:56.906Z,77.77
2023-03-29T01:52:08.172Z,72.95
2023-03-29T01:55:18.453Z,55.47
2023-03-29T01:58:08.455Z,49.47
2023-03-29T02:00:55.499Z,51.03
2023-03-29T02:03:47.285Z,51.56
2023-03-29T02:06:36.179Z,53.44
2023-03-29T02:09:23.496Z,56.62
2023-03-29T02:12:12.668Z,59.60
2023-03-29T02:15:00.910Z,61.49
2023-03-29T02:17:49.504Z,68.17
2023-03-29T02:20:40.668Z,71.51
2023-03-29T02:23:36.208Z,55.12
2023-03-29T02:26:24.015Z,48.92
2023-03-29T02:29:11.096Z,51.86
2023-03-29T02:32:09.919Z,54.11
2023-03-29T02:35:07.275Z,56.16
2023-03-29T02:37:57.447Z,57.54
2023-03-29T02:40:45.518Z,60.11
2023-03-29T02:43:34.659Z,59.43
2023-03-29T02:46:21.584Z,60.86
2023-03-29T02:49:10.306Z,66.34
2023-03-29T02:52:04.260Z,74.79
2023-03-29T02:54:54.519Z,63.09
2023-03-29T03:00:29.955Z,45.82
2023-03-29T03:03:17.070Z,48.30
2023-03-29T03:06:07.062Z,49.69
2023-03-29T03:08:53.893Z,54.69
2023-03-29T03:11:40.416Z,52.50
2023-03-29T03:14:28.340Z,52.64
2023-03-29T03:17:18.787Z,53.08
2023-03-29T03:20:13.235Z,54.17
2023-03-29T03:23:01.278Z,56.63
2023-03-29T03:25:49.246Z,58.53
2023-03-29T03:28:35.691Z,58.83
2023-03-29T03:31:23.992Z,61.84
2023-03-29T03:34:31.309Z,79.66
2023-03-29T03:37:20.076Z,65.77
2023-03-29T03:40:08.961Z,50.55
2023-03-29T03:42:55.504Z,48.30
2023-03-29T03:45:42.945Z,50.39
2023-03-29T03:48:34.094Z,54.15
2023-03-29T03:51:27.909Z,53.27
2023-03-29T03:54:14.289Z,55.72
2023-03-29T03:57:26.790Z,57.32
2023-03-29T04:00:20.481Z,59.10
2023-03-29T04:03:12.281Z,59.71
2023-03-29T04:06:02.229Z,61.58
2023-03-29T04:08:53.926Z,74.02
2023-03-29T04:11:56.909Z,72.60
2023-03-29T04:14:43.408Z,55.62
2023-03-29T04:17:36.489Z,46.20
2023-03-29T04:20:39.726Z,48.92
2023-03-29T04:23:26.594Z,50.12
2023-03-29T04:26:15.900Z,53.23
2023-03-29T04:29:08.461Z,56.22
2023-03-29T04:32:00.832Z,57.77
2023-03-29T04:35:01.662Z,59.21
2023-03-29T04:37:48.315Z,60.03
2023-03-29T04:40:35.779Z,60.05
2023-03-29T04:43:31.277Z,59.91
2023-03-29T04:46:40.372Z,60.25
2023-03-29T04:49:51.752Z,64.32
2023-03-29T04:52:51.447Z,80.62
2023-03-29T04:55:38.312Z,66.78
2023-03-29T04:58:32.192Z,56.10
2023-03-29T05:01:19.700Z,50.29
2023-03-29T05:04:15.331Z,46.64
2023-03-29T05:07:13.221Z,41.30
2023-03-29T05:10:00.216Z,40.58
2023-03-29T05:12:47.356Z,44.80
2023-03-29T05:15:33.782Z,47.51
2023-03-29T05:18:20.210Z,49.79
2023-03-29T05:21:07.670Z,52.42
2023-03-29T05:23:55.265Z,54.60
2023-03-29T05:27:08.261Z,56.71
2023-03-29T05:29:56.223Z,58.48
2023-03-29T05:32:48.005Z,59.44
2023-03-29T05:35:36.191Z,60.43
2023-03-29T05:38:24.127Z,60.38
2023-03-29T05:41:11.484Z,60.95
2023-03-29T05:44:17.084Z,60.76
2023-03-29T05:47:04.379Z,60.94
2023-03-29T05:49:51.518Z,60.87
2023-03-29T05:52:43.495Z,60.73
2023-03-29T05:55:29.822Z,61.10
2023-03-29T05:58:18.048Z,61.25
2023-03-29T06:01:10.536Z,71.62
2023-03-29T06:04:14.388Z,71.73
2023-03-29T06:07:08.612Z,52.40
2023-03-29T06:09:55.557Z,46.60
2023-03-29T06:12:42.755Z,49.27
2023-03-29T06:15:29.930Z,51.38
2023-03-29T06:18:23.383Z,52.64
2023-03-29T06:21:10.730Z,52.86
2023-03-29T06:23:57.821Z,52.91
2023-03-29T06:26:45.213Z,53.30
2023-03-29T06:29:32.037Z,53.46
2023-03-29T06:32:18.647Z,53.22
2023-03-29T06:35:18.718Z,55.61
2023-03-29T06:38:11.964Z,54.45
2023-03-29T06:41:16.882Z,53.93
2023-03-29T06:44:29.857Z,52.81
2023-03-29T06:47:30.910Z,52.92
2023-03-29T06:50:18.806Z,53.63
2023-03-29T06:53:13.613Z,55.09
2023-03-29T06:56:05.300Z,54.80
2023-03-29T06:59:03.454Z,58.53
2023-03-29T07:02:02.850Z,55.75
2023-03-29T07:05:16.300Z,51.70
2023-03-29T07:08:06.114Z,52.41
2023-03-29T07:11:04.010Z,53.67
2023-03-29T07:13:57.007Z,51.05
2023-03-29T07:16:47.223Z,50.75
2023-03-29T07:19:38.360Z,47.78
2023-03-29T07:22:33.004Z,49.05
2023-03-29T07:25:22.508Z,46.81
2023-03-29T07:28:09.479Z,47.08
2023-03-29T07:31:11.314Z,47.69
2023-03-29T07:34:05.627Z,47.25
2023-03-29T07:36:52.251Z,45.86
2023-03-29T07:39:38.690Z,46.94
2023-03-29T07:42:48.749Z,47.76
2023-03-29T07:45:37.885Z,46.20
2023-03-29T07:48:29.855Z,45.33
2023-03-29T07:51:19.125Z,45.13
2023-03-29T07:54:08.420Z,45.48
2023-03-29T07:56:55.429Z,45.42
2023-03-29T07:59:51.839Z,44.58
2023-03-29T08:02:46.707Z,45.25
2023-03-29T08:05:40.672Z,44.76
2023-03-29T08:08:34.808Z,44.64
2023-03-29T08:11:31.505Z,45.71
2023-03-29T08:14:24.510Z,44.36
2023-03-29T08:17:16.851Z,43.26
2023-03-29T08:20:10.780Z,43.02
2023-03-29T08:22:58.735Z,44.13
2023-03-29T08:26:09.396Z,43.61
2023-03-29T08:28:56.840Z,43.76
2023-03-29T08:31:43.891Z,42.56
2023-03-29T08:34:31.849Z,41.47
2023-03-29T08:37:37.856Z,40.57
2023-03-29T08:40:28.174Z,39.70
2023-03-29T08:44:07.247Z,39.42
2023-03-29T08:47:25.360Z,41.30
2023-03-29T08:50:13.870Z,41.34
2023-03-29T08:53:05.686Z,39.98
2023-03-29T08:56:34.019Z,39.99
2023-03-29T08:59:41.689Z,39.64
2023-03-29T09:02:32.587Z,41.28
2023-03-29T09:05:27.444Z,40.13
2023-03-29T09:08:40.188Z,39.24
2023-03-29T09:11:45.159Z,37.81
2023-03-29T09:14:55.858Z,38.68
2023-03-29T09:17:58.380Z,36.57
2023-03-29T09:20:52.610Z,36.55
2023-03-29T09:24:15.823Z,35.03
2023-03-29T09:27:26.558Z,36.59
2023-03-29T09:30:41.526Z,37.16
2023-03-29T09:33:42.817Z,36.71
2023-03-29T09:36:56.641Z,36.63
2023-03-29T09:39:43.850Z,37.39
2023-03-29T09:42:32.610Z,36.91
2023-03-29T09:45:19.630Z,37.63
2023-03-29T09:48:17.741Z,37.35
2023-03-29T09:51:11.427Z,37.03
2023-03-29T09:54:00.234Z,36.31
2023-03-29T09:57:20.334Z,37.42
2023-03-29T10:00:10.634Z,36.67
2023-03-29T10:03:07.456Z,36.89
2023-03-29T10:06:06.920Z,37.06
2023-03-29T10:08:59.078Z,37.27
2023-03-29T10:11:55.239Z,36.96
2023-03-29T10:14:48.137Z,37.41
2023-03-29T10:17:40.975Z,37.63
2023-03-29T10:20:28.246Z,36.56
2023-03-29T10:23:18.550Z,36.42
2023-03-29T10:26:10.277Z,36.26
2023-03-29T10:29:00.320Z,35.66
2023-03-29T10:31:46.673Z,35.23
2023-03-29T10:34:33.897Z,36.20
2023-03-29T10:37:21.296Z,35.45
2023-03-29T10:40:19.674Z,36.44
2023-03-29T10:43:24.654Z,36.60
2023-03-29T10:46:22.195Z,36.03
2023-03-29T10:49:20.719Z,35.52
2023-03-29T10:52:08.284Z,35.16
2023-03-29T10:54:56.632Z,35.23
2023-03-29T10:57:50.475Z,35.27
2023-03-29T11:00:52.341Z,35.54
2023-03-29T11:03:54.745Z,35.25
2023-03-29T11:06:52.634Z,35.14
2023-03-29T11:09:59.310Z,34.97
2023-03-29T11:12:56.082Z,34.69
2023-03-29T11:16:11.030Z,34.69
2023-03-29T11:19:15.452Z,35.06
2023-03-29T11:22:19.729Z,35.06
2023-03-29T11:25:20.614Z,35.47
2023-03-29T11:28:49.265Z,35.53
2023-03-29T11:31:54.174Z,35.93
2023-03-29T11:35:03.262Z,36.42
2023-03-29T11:38:08.553Z,36.22
2023-03-29T11:41:00.905Z,35.68
2023-03-29T11:43:54.233Z,36.04
2023-03-29T11:46:48.125Z,36.05
2023-03-29T11:49:49.376Z,35.07
2023-03-29T11:53:01.407Z,34.73
2023-03-29T11:55:51.396Z,36.51
2023-03-29T11:58:42.534Z,35.30
2023-03-29T12:01:38.574Z,33.87
2023-03-29T12:04:32.660Z,33.57
2023-03-29T12:07:28.291Z,32.90
2023-03-29T12:10:17.302Z,32.56
2023-03-29T12:13:12.052Z,32.64
2023-03-29T12:16:05.705Z,31.60
2023-03-29T12:18:57.300Z,31.62
2023-03-29T12:21:46.770Z,31.95
2023-03-29T12:24:38.750Z,32.17
2023-03-29T12:27:59.656Z,32.65
2023-03-29T12:31:06.443Z,32.68
2023-03-29T12:34:01.966Z,32.52
2023-03-29T12:37:27.027Z,32.69
2023-03-29T12:40:45.702Z,31.38
2023-03-29T12:43:51.514Z,30.37
2023-03-29T12:47:00.659Z,30.30
2023-03-29T12:49:47.704Z,28.78
2023-03-29T12:52:36.265Z,28.72
2023-03-29T12:55:32.369Z,29.79
2023-03-29T12:58:26.852Z,29.17
2023-03-29T13:01:32.110Z,27.70
2023-03-29T13:04:42.328Z,27.54
2023-03-29T13:07:32.988Z,27.68
2023-03-29T13:10:42.084Z,28.07
2023-03-29T13:13:33.846Z,28.19
2023-03-29T13:16:30.319Z,27.99
2023-03-29T13:19:32.481Z,27.87
2023-03-29T13:22:31.324Z,27.83
2023-03-29T13:25:47.004Z,28.82
2023-03-29T13:29:04.746Z,29.17
2023-03-29T13:31:56.981Z,29.14
2023-03-29T13:35:06.367Z,29.49
2023-03-29T13:38:20.770Z,29.96
2023-03-29T13:41:39.520Z,30.73
2023-03-29T13:44:33.883Z,31.00
2023-03-29T13:47:32.637Z,31.25
2023-03-29T13:50:33.582Z,31.58
2023-03-29T13:53:29.271Z,31.65
2023-03-29T13:56:22.415Z,31.95
2023-03-29T13:59:19.158Z,32.06
2023-03-29T14:02:06.656Z,32.56
2023-03-29T14:04:54.075Z,33.00
2023-03-29T14:07:46.545Z,33.01
2023-03-29T14:10:42.429Z,33.02
2023-03-29T14:13:30.153Z,33.14
2023-03-29T14:16:16.591Z,33.02
2023-03-29T14:19:06.182Z,33.02
2023-03-29T14:21:53.267Z,33.37
2023-03-29T14:24:48.060Z,33.36
2023-03-29T14:27:37.190Z,33.31
2023-03-29T14:30:27.962Z,32.00
2023-03-29T14:33:14.686Z,31.44
2023-03-29T14:36:06.359Z,31.13
2023-03-29T14:39:06.412Z,30.42
2023-03-29T14:41:55.411Z,29.84
2023-03-29T14:44:43.393Z,30.02
2023-03-29T14:47:32.987Z,30.66
2023-03-29T14:50:25.293Z,31.38
2023-03-29T14:53:24.298Z,31.77
2023-03-29T14:56:14.583Z,32.20
2023-03-29T14:59:03.598Z,32.28
2023-03-29T15:01:50.352Z,32.15
2023-03-29T15:04:37.485Z,32.01
2023-03-29T15:07:27.230Z,32.48
2023-03-29T15:10:23.088Z,32.32
2023-03-29T15:13:17.558Z,32.36
2023-03-29T15:16:08.117Z,32.44
2023-03-29T15:18:54.733Z,32.49
2023-03-29T15:21:41.258Z,32.18
2023-03-29T15:24:29.275Z,32.59
2023-03-29T15:27:18.295Z,33.19
2023-03-29T15:30:14.011Z,31.95
2023-03-29T15:33:39.987Z,30.53
2023-03-29T15:36:27.254Z,30.99
2023-03-29T15:39:17.144Z,30.88
2023-03-29T15:42:04.184Z,31.47
2023-03-29T15:44:54.806Z,31.86
2023-03-29T15:47:41.320Z,32.61
2023-03-29T15:50:28.062Z,32.88
2023-03-29T15:53:17.169Z,33.72
2023-03-29T15:56:07.495Z,33.84
2023-03-29T15:58:54.419Z,34.21
2023-03-29T16:01:41.935Z,34.71
2023-03-29T16:04:28.830Z,34.85
2023-03-29T16:07:17.536Z,35.44
2023-03-29T16:10:04.107Z,36.03
2023-03-29T16:12:50.797Z,36.17
2023-03-29T16:15:37.808Z,36.43
2023-03-29T16:18:24.515Z,36.73
2023-03-29T16:21:16.348Z,36.65
2023-03-29T16:24:03.926Z,36.78
2023-03-29T16:26:54.000Z,37.14
2023-03-29T16:29:42.082Z,37.04
2023-03-29T16:32:28.757Z,37.37
2023-03-29T16:35:29.102Z,37.73
2023-03-29T16:38:15.558Z,38.56
2023-03-29T16:41:02.644Z,38.74
2023-03-29T16:43:49.376Z,38.86
2023-03-29T16:46:35.839Z,39.50
2023-03-29T16:49:22.449Z,39.40
2023-03-29T16:52:09.162Z,39.47
2023-03-29T16:54:55.425Z,39.66
2023-03-29T16:57:42.626Z,39.88
2023-03-29T17:00:29.529Z,40.25
2023-03-29T17:03:16.964Z,40.27
2023-03-29T17:06:05.643Z,40.90
2023-03-29T17:08:53.841Z,41.45
2023-03-29T17:11:41.481Z,41.31
2023-03-29T17:14:28.697Z,41.65
2023-03-29T17:17:16.101Z,41.67
2023-03-29T17:20:02.650Z,42.50
2023-03-29T17:22:52.203Z,42.19
2023-03-29T17:25:38.745Z,42.18
2023-03-29T17:28:25.309Z,42.54
2023-03-29T17:31:12.134Z,42.88
2023-03-29T17:33:58.540Z,43.11
2023-03-29T17:36:45.982Z,43.36
2023-03-29T17:39:37.564Z,43.85
2023-03-29T17:42:24.145Z,43.77
2023-03-29T17:45:11.278Z,44.21
2023-03-29T17:47:58.274Z,44.24
2023-03-29T17:50:44.730Z,44.48
2023-03-29T17:53:31.231Z,44.63
2023-03-29T17:56:20.300Z,45.10
2023-03-29T17:59:06.665Z,45.11
2023-03-29T18:01:53.425Z,45.59
2023-03-29T18:04:39.656Z,45.53
2023-03-29T18:07:26.168Z,45.72
2023-03-29T18:10:12.605Z,45.40
2023-03-29T18:13:00.115Z,45.62
2023-03-29T18:15:47.580Z,45.50
2023-03-29T18:18:34.966Z,45.89
2023-03-29T18:21:22.123Z,45.94
2023-03-29T18:24:08.504Z,46.42
2023-03-29T18:26:55.163Z,46.53
2023-03-29T18:29:41.496Z,46.33
2023-03-29T18:32:28.310Z,46.61
2023-03-29T18:35:15.124Z,46.54
2023-03-29T18:38:03.345Z,46.69
2023-03-29T18:40:50.608Z,46.92
2023-03-29T18:43:38.798Z,46.98
2023-03-29T18:46:25.882Z,47.17
2023-03-29T18:49:13.234Z,47.36
2023-03-29T18:51:59.859Z,47.50
2023-03-29T18:54:46.495Z,47.71
2023-03-29T18:57:33.089Z,47.97
2023-03-29T19:00:20.011Z,47.90
2023-03-29T19:03:07.629Z,47.80
2023-03-29T19:05:55.799Z,48.05
2023-03-29T19:08:42.671Z,48.51
2023-03-29T19:11:30.040Z,48.58
2023-03-29T19:14:23.323Z,48.64
2023-03-29T19:17:09.809Z,48.74
2023-03-29T19:19:56.848Z,49.02
2023-03-29T19:22:43.172Z,49.00
2023-03-29T19:25:33.021Z,49.23
2023-03-29T19:28:19.503Z,49.28
2023-03-29T19:31:05.762Z,49.89
2023-03-29T19:33:52.201Z,49.75
2023-03-29T19:36:39.290Z,49.72
2023-03-29T19:39:27.960Z,50.05
2023-03-29T19:42:15.015Z,50.39
2023-03-29T19:45:02.478Z,50.21
2023-03-29T19:47:57.737Z,50.75
2023-03-29T19:50:45.672Z,50.92
2023-03-29T19:53:32.916Z,50.78
2023-03-29T19:56:19.965Z,51.26
2023-03-29T19:59:06.922Z,51.32
2023-03-29T20:01:56.853Z,51.31
2023-03-29T20:04:44.101Z,51.40
2023-03-29T20:07:30.473Z,51.12
2023-03-29T20:10:17.292Z,51.65
2023-03-29T20:13:06.281Z,51.67
2023-03-29T20:15:53.471Z,51.69
2023-03-29T20:18:39.807Z,51.87
2023-03-29T20:21:26.277Z,52.23
2023-03-29T20:24:12.609Z,52.22
2023-03-29T20:26:58.840Z,52.22
2023-03-29T20:29:45.921Z,52.40
2023-03-29T20:32:32.478Z,52.53
2023-03-29T20:35:19.177Z,52.95
2023-03-29T20:38:05.895Z,53.35
2023-03-29T20:40:53.552Z,53.36
2023-03-29T20:43:41.292Z,53.37
2023-03-29T20:46:35.068Z,53.62
2023-03-29T20:49:26.281Z,53.62
2023-03-29T20:52:17.710Z,53.46
2023-03-29T20:55:05.689Z,53.71
2023-03-29T20:57:59.513Z,54.41
2023-03-29T21:00:48.598Z,54.09
2023-03-29T21:03:37.622Z,54.14
2023-03-29T21:06:24.598Z,54.24
2023-03-29T21:09:10.848Z,54.37
2023-03-29T21:11:57.491Z,54.54
2023-03-29T21:14:44.933Z,54.54
2023-03-29T21:17:31.334Z,55.04
2023-03-29T21:20:18.720Z,55.01
2023-03-29T21:23:05.188Z,54.96
2023-03-29T21:25:52.004Z,55.49
2023-03-29T21:28:38.236Z,55.39
2023-03-29T21:31:24.848Z,56.28
2023-03-29T21:34:11.060Z,55.84
2023-03-29T21:36:58.317Z,56.13
2023-03-29T21:39:45.026Z,56.10
2023-03-29T21:42:34.966Z,56.62
2023-03-29T21:45:21.950Z,56.35
2023-03-29T21:48:08.684Z,56.32
2023-03-29T21:50:55.428Z,56.60
2023-03-29T21:53:42.282Z,56.76
2023-03-29T21:56:28.943Z,56.70
2023-03-29T21:59:15.453Z,57.73
2023-03-29T22:02:02.203Z,57.27
2023-03-29T22:04:49.076Z,56.99
2023-03-29T22:07:38.785Z,57.28
2023-03-29T22:10:25.810Z,57.41
2023-03-29T22:13:12.488Z,57.55
2023-03-29T22:16:01.091Z,57.65
2023-03-29T22:18:49.164Z,57.43
2023-03-29T22:21:37.318Z,57.46
2023-03-29T22:24:23.962Z,57.57
2023-03-29T22:27:11.748Z,57.67
2023-03-29T22:29:58.758Z,58.57
2023-03-29T22:32:45.597Z,58.57
2023-03-29T22:35:34.842Z,58.76
2023-03-29T22:38:21.429Z,58.59
2023-03-29T22:41:08.645Z,58.59
2023-03-29T22:43:57.720Z,59.52
2023-03-29T22:46:44.513Z,58.71
2023-03-29T22:49:31.627Z,59.23
2023-03-29T22:52:18.330Z,60.48
2023-03-29T22:55:05.435Z,61.46
2023-03-29T22:57:51.746Z,73.19
2023-03-29T23:00:38.259Z,62.43
2023-03-29T23:03:25.402Z,49.77
2023-03-29T23:06:12.021Z,49.12
2023-03-29T23:08:58.877Z,50.38
2023-03-29T23:11:45.624Z,53.23
2023-03-29T23:14:33.793Z,53.91
2023-03-29T23:17:20.512Z,54.10
2023-03-29T23:20:08.769Z,55.96
2023-03-29T23:22:55.257Z,56.88
2023-03-29T23:25:49.710Z,57.82
2023-03-29T23:28:38.209Z,57.97
2023-03-29T23:31:25.585Z,59.43
2023-03-29T23:34:13.661Z,59.55
2023-03-29T23:37:00.383Z,59.10
2023-03-29T23:39:47.090Z,59.80
2023-03-29T23:42:33.692Z,69.16
2023-03-29T23:45:20.401Z,62.09
2023-03-29T23:48:07.638Z,52.36
2023-03-29T23:50:57.096Z,50.90
2023-03-29T23:53:43.246Z,52.05
2023-03-29T23:56:29.775Z,53.11
2023-03-29T23:59:16.932Z,54.73
